sensor_id;sensor_type;location;lat;lon;timestamp;pressure;altitude;pressure_sealevel;temperature;humidity
59194;BME280;44967;48.598;15.650;2023-07-29T00:00:38;97772.84;;;19.96;66.75
59194;BME280;44967;48.598;15.650;2023-07-29T00:03:05;97774.56;;;19.97;67.01
59194;BME280;44967;48.598;15.650;2023-07-29T00:05:30;97774.91;;;19.93;67.82
59194;BME280;44967;48.598;15.650;2023-07-29T00:07:56;97769.63;;;19.91;67.79
59194;BME280;44967;48.598;15.650;2023-07-29T00:10:22;97773.06;;;19.93;67.54
59194;BME280;44967;48.598;15.650;2023-07-29T00:12:48;97773.94;;;19.94;67.71
59194;BME280;44967;48.598;15.650;2023-07-29T00:15:13;97772.19;;;19.82;67.98
59194;BME280;44967;48.598;15.650;2023-07-29T00:17:39;97768.88;;;19.78;68.26
59194;BME280;44967;48.598;15.650;2023-07-29T00:20:06;97761.72;;;19.90;67.67
59194;BME280;44967;48.598;15.650;2023-07-29T00:22:32;97773.41;;;19.89;68.32
59194;BME280;44967;48.598;15.650;2023-07-29T00:24:57;97774.19;;;19.91;68.30
59194;BME280;44967;48.598;15.650;2023-07-29T00:27:25;97761.22;;;19.85;68.35
59194;BME280;44967;48.598;15.650;2023-07-29T00:29:51;97769.50;;;19.82;68.11
59194;BME280;44967;48.598;15.650;2023-07-29T00:32:17;97763.19;;;19.83;67.97
59194;BME280;44967;48.598;15.650;2023-07-29T00:34:43;97767.44;;;19.85;67.81
59194;BME280;44967;48.598;15.650;2023-07-29T00:37:08;97762.25;;;19.95;67.82
59194;BME280;44967;48.598;15.650;2023-07-29T00:39:34;97756.81;;;19.84;68.19
59194;BME280;44967;48.598;15.650;2023-07-29T00:42:00;97752.78;;;19.78;68.69
59194;BME280;44967;48.598;15.650;2023-07-29T00:44:25;97754.63;;;19.77;68.48
59194;BME280;44967;48.598;15.650;2023-07-29T00:46:52;97756.75;;;19.61;69.44
59194;BME280;44967;48.598;15.650;2023-07-29T00:49:21;97755.53;;;19.65;68.99
59194;BME280;44967;48.598;15.650;2023-07-29T00:51:48;97756.41;;;19.66;68.96
59194;BME280;44967;48.598;15.650;2023-07-29T00:54:13;97755.03;;;19.60;69.38
59194;BME280;44967;48.598;15.650;2023-07-29T00:56:40;97750.38;;;19.51;69.90
59194;BME280;44967;48.598;15.650;2023-07-29T00:59:06;97749.38;;;19.52;69.77
59194;BME280;44967;48.598;15.650;2023-07-29T01:01:32;97751.22;;;19.52;69.99
59194;BME280;44967;48.598;15.650;2023-07-29T01:03:58;97753.78;;;19.53;70.28
59194;BME280;44967;48.598;15.650;2023-07-29T01:06:34;97748.44;;;19.53;70.18
59194;BME280;44967;48.598;15.650;2023-07-29T01:09:23;97747.97;;;19.59;69.88
59194;BME280;44967;48.598;15.650;2023-07-29T01:12:12;97745.91;;;19.63;69.67
59194;BME280;44967;48.598;15.650;2023-07-29T01:14:58;97749.22;;;19.66;70.04
59194;BME280;44967;48.598;15.650;2023-07-29T01:17:30;97744.06;;;19.63;70.26
59194;BME280;44967;48.598;15.650;2023-07-29T01:22:29;97749.56;;;19.62;70.42
59194;BME280;44967;48.598;15.650;2023-07-29T01:24:57;97747.75;;;19.62;70.14
59194;BME280;44967;48.598;15.650;2023-07-29T01:27:23;97744.31;;;19.60;70.51
59194;BME280;44967;48.598;15.650;2023-07-29T01:29:49;97755.53;;;19.65;70.14
59194;BME280;44967;48.598;15.650;2023-07-29T01:35:24;97744.31;;;19.60;70.42
59194;BME280;44967;48.598;15.650;2023-07-29T01:38:01;97746.44;;;19.44;71.19
59194;BME280;44967;48.598;15.650;2023-07-29T01:40:28;97751.44;;;19.49;70.57
59194;BME280;44967;48.598;15.650;2023-07-29T01:42:55;97748.59;;;19.39;71.20
59194;BME280;44967;48.598;15.650;2023-07-29T01:45:24;97745.91;;;19.39;70.96
59194;BME280;44967;48.598;15.650;2023-07-29T01:47:51;97743.94;;;19.41;70.85
59194;BME280;44967;48.598;15.650;2023-07-29T01:50:16;97750.59;;;19.48;70.80
59194;BME280;44967;48.598;15.650;2023-07-29T01:52:42;97745.84;;;19.52;70.80
59194;BME280;44967;48.598;15.650;2023-07-29T01:55:08;97744.78;;;19.54;70.54
59194;BME280;44967;48.598;15.650;2023-07-29T01:57:34;97748.94;;;19.58;70.32
59194;BME280;44967;48.598;15.650;2023-07-29T01:59:59;97753.56;;;19.56;71.14
59194;BME280;44967;48.598;15.650;2023-07-29T02:02:25;97756.81;;;19.49;71.20
59194;BME280;44967;48.598;15.650;2023-07-29T02:04:50;97754.59;;;19.43;71.31
59194;BME280;44967;48.598;15.650;2023-07-29T02:07:18;97747.81;;;19.37;72.04
59194;BME280;44967;48.598;15.650;2023-07-29T02:09:44;97750.66;;;19.36;71.90
59194;BME280;44967;48.598;15.650;2023-07-29T02:12:10;97756.00;;;19.36;72.15
59194;BME280;44967;48.598;15.650;2023-07-29T02:14:36;97747.31;;;19.32;72.32
59194;BME280;44967;48.598;15.650;2023-07-29T02:17:02;97746.09;;;19.36;71.95
59194;BME280;44967;48.598;15.650;2023-07-29T02:19:27;97752.47;;;19.35;72.11
59194;BME280;44967;48.598;15.650;2023-07-29T02:21:53;97756.63;;;19.39;72.17
59194;BME280;44967;48.598;15.650;2023-07-29T02:24:18;97758.88;;;19.33;72.45
59194;BME280;44967;48.598;15.650;2023-07-29T02:26:44;97753.66;;;19.31;72.65
59194;BME280;44967;48.598;15.650;2023-07-29T02:29:10;97753.41;;;19.34;72.45
59194;BME280;44967;48.598;15.650;2023-07-29T02:31:36;97750.66;;;19.36;72.71
59194;BME280;44967;48.598;15.650;2023-07-29T02:34:03;97757.91;;;19.34;72.73
59194;BME280;44967;48.598;15.650;2023-07-29T02:36:29;97761.13;;;19.39;72.54
59194;BME280;44967;48.598;15.650;2023-07-29T02:38:55;97758.44;;;19.39;72.77
59194;BME280;44967;48.598;15.650;2023-07-29T02:41:20;97754.28;;;19.35;72.60
59194;BME280;44967;48.598;15.650;2023-07-29T02:43:50;97753.31;;;19.36;72.72
59194;BME280;44967;48.598;15.650;2023-07-29T02:46:16;97761.97;;;19.39;72.39
59194;BME280;44967;48.598;15.650;2023-07-29T02:48:42;97757.91;;;19.34;72.88
59194;BME280;44967;48.598;15.650;2023-07-29T02:51:08;97760.50;;;19.35;72.87
59194;BME280;44967;48.598;15.650;2023-07-29T02:53:34;97752.81;;;19.30;73.08
59194;BME280;44967;48.598;15.650;2023-07-29T02:56:03;97762.19;;;19.36;72.96
59194;BME280;44967;48.598;15.650;2023-07-29T02:58:28;97761.47;;;19.34;72.81
59194;BME280;44967;48.598;15.650;2023-07-29T03:01:03;97756.63;;;19.39;72.93
59194;BME280;44967;48.598;15.650;2023-07-29T03:03:30;97760.25;;;19.38;73.04
59194;BME280;44967;48.598;15.650;2023-07-29T03:06:00;97758.31;;;19.40;73.18
59194;BME280;44967;48.598;15.650;2023-07-29T03:08:26;97759.31;;;19.39;73.03
59194;BME280;44967;48.598;15.650;2023-07-29T03:10:52;97753.31;;;19.36;73.20
59194;BME280;44967;48.598;15.650;2023-07-29T03:13:17;97748.50;;;19.28;73.94
59194;BME280;44967;48.598;15.650;2023-07-29T03:15:43;97752.03;;;19.28;73.54
59194;BME280;44967;48.598;15.650;2023-07-29T03:18:09;97747.88;;;19.24;74.01
59194;BME280;44967;48.598;15.650;2023-07-29T03:20:35;97752.03;;;19.28;73.90
59194;BME280;44967;48.598;15.650;2023-07-29T03:23:01;97754.16;;;19.36;73.44
59194;BME280;44967;48.598;15.650;2023-07-29T03:25:26;97746.91;;;19.25;74.30
59194;BME280;44967;48.598;15.650;2023-07-29T03:27:52;97750.22;;;19.29;74.20
59194;BME280;44967;48.598;15.650;2023-07-29T03:30:21;97741.59;;;19.37;73.91
59194;BME280;44967;48.598;15.650;2023-07-29T03:32:47;97745.50;;;19.33;74.30
59194;BME280;44967;48.598;15.650;2023-07-29T03:35:13;97736.97;;;19.27;73.91
59194;BME280;44967;48.598;15.650;2023-07-29T03:37:39;97740.59;;;19.26;74.08
59194;BME280;44967;48.598;15.650;2023-07-29T03:40:05;97741.66;;;19.24;73.88
59194;BME280;44967;48.598;15.650;2023-07-29T03:42:31;97739.50;;;19.29;73.89
59194;BME280;44967;48.598;15.650;2023-07-29T03:44:57;97741.66;;;19.24;74.44
59194;BME280;44967;48.598;15.650;2023-07-29T03:47:22;97741.91;;;19.21;74.60
59194;BME280;44967;48.598;15.650;2023-07-29T03:49:48;97743.63;;;19.22;74.45
59194;BME280;44967;48.598;15.650;2023-07-29T03:52:14;97743.00;;;19.18;74.61
59194;BME280;44967;48.598;15.650;2023-07-29T03:54:39;97744.81;;;19.18;74.65
59194;BME280;44967;48.598;15.650;2023-07-29T03:57:05;97744.25;;;19.25;74.35
59194;BME280;44967;48.598;15.650;2023-07-29T03:59:31;97743.09;;;19.17;75.18
59194;BME280;44967;48.598;15.650;2023-07-29T04:01:57;97749.50;;;19.27;74.39
59194;BME280;44967;48.598;15.650;2023-07-29T04:04:23;97748.16;;;19.33;74.28
59194;BME280;44967;48.598;15.650;2023-07-29T04:06:48;97749.97;;;19.32;73.99
59194;BME280;44967;48.598;15.650;2023-07-29T04:09:14;97756.72;;;19.38;73.97
59194;BME280;44967;48.598;15.650;2023-07-29T04:11:40;97751.56;;;19.23;74.72
59194;BME280;44967;48.598;15.650;2023-07-29T04:14:05;97752.38;;;19.24;75.05
59194;BME280;44967;48.598;15.650;2023-07-29T04:16:31;97749.78;;;19.35;74.34
59194;BME280;44967;48.598;15.650;2023-07-29T04:18:56;97752.00;;;19.41;74.51
59194;BME280;44967;48.598;15.650;2023-07-29T04:21:22;97760.16;;;19.40;74.74
59194;BME280;44967;48.598;15.650;2023-07-29T04:23:48;97752.47;;;19.35;74.63
59194;BME280;44967;48.598;15.650;2023-07-29T04:26:14;97756.94;;;19.47;74.74
59194;BME280;44967;48.598;15.650;2023-07-29T04:28:39;97762.06;;;19.50;74.72
59194;BME280;44967;48.598;15.650;2023-07-29T04:31:05;97758.56;;;19.61;74.19
59194;BME280;44967;48.598;15.650;2023-07-29T04:33:31;97756.16;;;19.69;74.21
59194;BME280;44967;48.598;15.650;2023-07-29T04:35:57;97759.59;;;19.71;74.19
59194;BME280;44967;48.598;15.650;2023-07-29T04:38:29;97763.53;;;19.78;73.74
59194;BME280;44967;48.598;15.650;2023-07-29T04:40:55;97769.88;;;19.88;73.06
59194;BME280;44967;48.598;15.650;2023-07-29T04:43:21;97768.56;;;19.94;72.79
59194;BME280;44967;48.598;15.650;2023-07-29T04:45:46;97768.22;;;19.98;72.66
59194;BME280;44967;48.598;15.650;2023-07-29T04:48:12;97767.22;;;19.99;72.58
59194;BME280;44967;48.598;15.650;2023-07-29T04:50:38;97778.59;;;20.03;71.81
59194;BME280;44967;48.598;15.650;2023-07-29T04:53:04;97773.97;;;20.05;72.40
59194;BME280;44967;48.598;15.650;2023-07-29T04:55:29;97767.00;;;20.02;72.58
59194;BME280;44967;48.598;15.650;2023-07-29T04:57:55;97776.16;;;20.11;72.14
59194;BME280;44967;48.598;15.650;2023-07-29T05:00:21;97783.66;;;20.18;72.15
59194;BME280;44967;48.598;15.650;2023-07-29T05:02:46;97780.81;;;20.20;71.73
59194;BME280;44967;48.598;15.650;2023-07-29T05:05:12;97782.47;;;20.34;71.47
59194;BME280;44967;48.598;15.650;2023-07-29T05:07:37;97784.81;;;20.49;70.21
59194;BME280;44967;48.598;15.650;2023-07-29T05:10:03;97782.75;;;20.64;70.35
59194;BME280;44967;48.598;15.650;2023-07-29T05:12:30;97786.28;;;20.76;69.81
59194;BME280;44967;48.598;15.650;2023-07-29T05:14:58;97783.25;;;20.80;68.26
59194;BME280;44967;48.598;15.650;2023-07-29T05:17:23;97785.06;;;20.91;65.80
59194;BME280;44967;48.598;15.650;2023-07-29T05:19:49;97798.25;;;21.05;66.39
59194;BME280;44967;48.598;15.650;2023-07-29T05:22:15;97797.53;;;21.14;66.60
59194;BME280;44967;48.598;15.650;2023-07-29T05:24:40;97797.53;;;21.14;65.26
59194;BME280;44967;48.598;15.650;2023-07-29T05:27:06;97799.97;;;21.17;65.44
59194;BME280;44967;48.598;15.650;2023-07-29T05:29:34;97788.22;;;21.18;64.99
59194;BME280;44967;48.598;15.650;2023-07-29T05:31:59;97791.19;;;21.15;64.48
59194;BME280;44967;48.598;15.650;2023-07-29T05:34:25;97788.75;;;21.12;64.66
59194;BME280;44967;48.598;15.650;2023-07-29T05:36:51;97796.56;;;21.15;63.61
59194;BME280;44967;48.598;15.650;2023-07-29T05:39:17;97802.16;;;21.23;62.90
59194;BME280;44967;48.598;15.650;2023-07-29T05:41:42;97796.91;;;21.33;62.88
59194;BME280;44967;48.598;15.650;2023-07-29T05:44:08;97803.47;;;21.40;62.71
59194;BME280;44967;48.598;15.650;2023-07-29T05:46:33;97808.72;;;21.41;61.82
59194;BME280;44967;48.598;15.650;2023-07-29T05:48:59;97806.25;;;21.49;61.99
59194;BME280;44967;48.598;15.650;2023-07-29T05:51:25;97807.25;;;21.48;61.85
59194;BME280;44967;48.598;15.650;2023-07-29T05:53:51;97811.00;;;21.57;60.82
59194;BME280;44967;48.598;15.650;2023-07-29T05:56:16;97808.78;;;21.62;61.31
59194;BME280;44967;48.598;15.650;2023-07-29T05:58:42;97811.84;;;21.69;60.79
59194;BME280;44967;48.598;15.650;2023-07-29T06:01:07;97812.81;;;21.68;60.53
59194;BME280;44967;48.598;15.650;2023-07-29T06:03:33;97801.50;;;21.53;60.74
59194;BME280;44967;48.598;15.650;2023-07-29T06:05:59;97798.56;;;21.56;60.80
59194;BME280;44967;48.598;15.650;2023-07-29T06:08:24;97808.66;;;21.63;61.10
59194;BME280;44967;48.598;15.650;2023-07-29T06:10:53;97808.94;;;21.60;61.39
59194;BME280;44967;48.598;15.650;2023-07-29T06:13:19;97813.91;;;21.65;60.66
59194;BME280;44967;48.598;15.650;2023-07-29T06:15:45;97810.38;;;21.65;60.97
59194;BME280;44967;48.598;15.650;2023-07-29T06:18:10;97810.72;;;21.71;60.93
59194;BME280;44967;48.598;15.650;2023-07-29T06:20:36;97811.31;;;21.75;60.78
59194;BME280;44967;48.598;15.650;2023-07-29T06:23:02;97803.19;;;21.86;60.74
59194;BME280;44967;48.598;15.650;2023-07-29T06:25:27;97801.09;;;21.89;60.41
59194;BME280;44967;48.598;15.650;2023-07-29T06:27:53;97805.09;;;22.06;60.16
59194;BME280;44967;48.598;15.650;2023-07-29T06:30:18;97807.69;;;22.07;60.24
59194;BME280;44967;48.598;15.650;2023-07-29T06:32:45;97809.19;;;22.21;59.66
59194;BME280;44967;48.598;15.650;2023-07-29T06:35:10;97812.41;;;22.36;59.15
59194;BME280;44967;48.598;15.650;2023-07-29T06:37:36;97812.66;;;22.33;59.05
59194;BME280;44967;48.598;15.650;2023-07-29T06:40:02;97817.06;;;22.54;58.37
59194;BME280;44967;48.598;15.650;2023-07-29T06:42:28;97809.06;;;22.43;58.46
59194;BME280;44967;48.598;15.650;2023-07-29T06:44:54;97813.03;;;22.28;58.73
59194;BME280;44967;48.598;15.650;2023-07-29T06:47:19;97809.84;;;22.34;58.28
59194;BME280;44967;48.598;15.650;2023-07-29T06:49:45;97811.47;;;22.26;58.74
59194;BME280;44967;48.598;15.650;2023-07-29T06:52:12;97807.16;;;22.34;58.50
59194;BME280;44967;48.598;15.650;2023-07-29T06:57:04;97802.56;;;22.25;58.41
59194;BME280;44967;48.598;15.650;2023-07-29T06:59:30;97801.66;;;22.36;58.21
59194;BME280;44967;48.598;15.650;2023-07-29T07:01:55;97790.66;;;22.48;58.05
59194;BME280;44967;48.598;15.650;2023-07-29T07:04:21;97786.72;;;22.52;58.41
59194;BME280;44967;48.598;15.650;2023-07-29T07:06:47;97789.00;;;22.57;57.97
59194;BME280;44967;48.598;15.650;2023-07-29T07:09:12;97782.44;;;22.50;58.11
59194;BME280;44967;48.598;15.650;2023-07-29T07:11:38;97784.75;;;22.54;57.56
59194;BME280;44967;48.598;15.650;2023-07-29T07:14:03;97781.00;;;22.67;56.75
59194;BME280;44967;48.598;15.650;2023-07-29T07:16:29;97789.41;;;22.73;56.93
59194;BME280;44967;48.598;15.650;2023-07-29T07:18:56;97787.00;;;22.80;56.66
59194;BME280;44967;48.598;15.650;2023-07-29T07:21:22;97788.47;;;22.84;56.14
59194;BME280;44967;48.598;15.650;2023-07-29T07:23:50;97786.78;;;22.92;56.16
59194;BME280;44967;48.598;15.650;2023-07-29T07:26:16;97789.38;;;23.03;54.98
59194;BME280;44967;48.598;15.650;2023-07-29T07:28:41;97790.13;;;23.15;54.45
59194;BME280;44967;48.598;15.650;2023-07-29T07:31:07;97786.50;;;23.26;55.03
59194;BME280;44967;48.598;15.650;2023-07-29T07:33:33;97785.13;;;23.51;54.50
59194;BME280;44967;48.598;15.650;2023-07-29T07:35:58;97792.44;;;23.69;53.38
59194;BME280;44967;48.598;15.650;2023-07-29T07:38:24;97796.00;;;23.70;53.82
59194;BME280;44967;48.598;15.650;2023-07-29T07:40:56;97796.81;;;24.57;51.46
59194;BME280;44967;48.598;15.650;2023-07-29T07:43:22;97790.97;;;26.15;47.15
59194;BME280;44967;48.598;15.650;2023-07-29T07:45:48;97802.28;;;27.49;43.18
59194;BME280;44967;48.598;15.650;2023-07-29T07:48:14;97802.44;;;28.46;40.98
59194;BME280;44967;48.598;15.650;2023-07-29T07:50:43;97793.91;;;29.45;38.91
59194;BME280;44967;48.598;15.650;2023-07-29T07:53:08;97796.13;;;30.34;37.67
59194;BME280;44967;48.598;15.650;2023-07-29T07:55:34;97799.81;;;30.64;35.24
59194;BME280;44967;48.598;15.650;2023-07-29T07:58:00;97791.94;;;30.83;35.09
59194;BME280;44967;48.598;15.650;2023-07-29T08:00:25;97795.94;;;29.51;37.64
59194;BME280;44967;48.598;15.650;2023-07-29T08:02:51;97803.97;;;27.58;41.06
59194;BME280;44967;48.598;15.650;2023-07-29T08:05:16;97802.09;;;27.51;41.46
59194;BME280;44967;48.598;15.650;2023-07-29T08:07:43;97790.78;;;29.09;38.67
59194;BME280;44967;48.598;15.650;2023-07-29T08:10:09;97790.06;;;30.24;36.38
59194;BME280;44967;48.598;15.650;2023-07-29T08:12:34;97789.81;;;31.23;33.78
59194;BME280;44967;48.598;15.650;2023-07-29T08:15:00;97784.03;;;31.76;33.40
59194;BME280;44967;48.598;15.650;2023-07-29T08:17:26;97779.81;;;31.74;33.25
59194;BME280;44967;48.598;15.650;2023-07-29T08:19:51;97764.59;;;30.54;35.24
59194;BME280;44967;48.598;15.650;2023-07-29T08:22:17;97758.41;;;30.60;34.79
59194;BME280;44967;48.598;15.650;2023-07-29T08:24:43;97756.31;;;31.00;34.09
59194;BME280;44967;48.598;15.650;2023-07-29T08:27:08;97753.59;;;30.25;34.96
59194;BME280;44967;48.598;15.650;2023-07-29T08:29:34;97755.34;;;28.78;37.11
59194;BME280;44967;48.598;15.650;2023-07-29T08:32:00;97755.66;;;29.69;36.27
59194;BME280;44967;48.598;15.650;2023-07-29T08:34:25;97747.25;;;29.79;35.64
59194;BME280;44967;48.598;15.650;2023-07-29T08:36:51;97741.25;;;28.58;37.96
59194;BME280;44967;48.598;15.650;2023-07-29T08:39:17;97743.25;;;28.65;38.44
59194;BME280;44967;48.598;15.650;2023-07-29T08:41:51;97737.50;;;29.84;36.60
59194;BME280;44967;48.598;15.650;2023-07-29T08:44:24;97741.19;;;30.74;33.75
59194;BME280;44967;48.598;15.650;2023-07-29T08:46:51;97743.25;;;31.75;31.72
59194;BME280;44967;48.598;15.650;2023-07-29T08:49:19;97735.09;;;31.60;31.58
59194;BME280;44967;48.598;15.650;2023-07-29T08:51:46;97732.28;;;30.80;32.94
59194;BME280;44967;48.598;15.650;2023-07-29T08:54:14;97727.50;;;30.97;32.66
59194;BME280;44967;48.598;15.650;2023-07-29T08:56:43;97717.38;;;29.93;34.10
59194;BME280;44967;48.598;15.650;2023-07-29T08:59:09;97721.75;;;30.77;32.64
59194;BME280;44967;48.598;15.650;2023-07-29T09:01:39;97713.13;;;30.14;33.26
59194;BME280;44967;48.598;15.650;2023-07-29T09:04:06;97722.28;;;29.67;35.06
59194;BME280;44967;48.598;15.650;2023-07-29T09:06:32;97718.38;;;28.92;35.68
59194;BME280;44967;48.598;15.650;2023-07-29T09:08:58;97717.22;;;29.64;35.92
59194;BME280;44967;48.598;15.650;2023-07-29T09:11:25;97712.34;;;30.65;33.29
59194;BME280;44967;48.598;15.650;2023-07-29T09:13:50;97711.13;;;31.12;32.27
59194;BME280;44967;48.598;15.650;2023-07-29T09:16:16;97708.88;;;31.87;31.29
59194;BME280;44967;48.598;15.650;2023-07-29T09:18:42;97707.00;;;32.09;31.19
59194;BME280;44967;48.598;15.650;2023-07-29T09:21:08;97704.84;;;31.47;31.72
59194;BME280;44967;48.598;15.650;2023-07-29T09:23:41;97690.16;;;30.08;33.73
59194;BME280;44967;48.598;15.650;2023-07-29T09:26:08;97689.97;;;29.64;35.08
59194;BME280;44967;48.598;15.650;2023-07-29T09:28:35;97697.72;;;29.14;35.53
59194;BME280;44967;48.598;15.650;2023-07-29T09:31:01;97688.84;;;29.28;35.83
59194;BME280;44967;48.598;15.650;2023-07-29T09:33:34;97691.38;;;28.90;36.94
59194;BME280;44967;48.598;15.650;2023-07-29T09:36:09;97697.25;;;28.55;38.07
59194;BME280;44967;48.598;15.650;2023-07-29T09:38:35;97704.44;;;28.32;37.26
59194;BME280;44967;48.598;15.650;2023-07-29T09:41:01;97694.16;;;28.66;37.13
59194;BME280;44967;48.598;15.650;2023-07-29T09:43:34;97697.41;;;30.01;34.84
59194;BME280;44967;48.598;15.650;2023-07-29T09:46:01;97689.41;;;29.15;36.40
59194;BME280;44967;48.598;15.650;2023-07-29T09:48:27;97701.44;;;29.29;36.50
59194;BME280;44967;48.598;15.650;2023-07-29T09:50:54;97696.19;;;28.64;37.34
59194;BME280;44967;48.598;15.650;2023-07-29T09:53:20;97687.75;;;28.43;38.02
59194;BME280;44967;48.598;15.650;2023-07-29T09:55:47;97687.94;;;29.66;35.48
59194;BME280;44967;48.598;15.650;2023-07-29T09:58:14;97684.06;;;30.06;34.90
59194;BME280;44967;48.598;15.650;2023-07-29T10:00:40;97690.28;;;30.52;34.98
59194;BME280;44967;48.598;15.650;2023-07-29T10:03:06;97696.16;;;31.08;33.65
59194;BME280;44967;48.598;15.650;2023-07-29T10:05:32;97688.50;;;31.18;33.59
59194;BME280;44967;48.598;15.650;2023-07-29T10:08:00;97691.81;;;31.28;33.58
59194;BME280;44967;48.598;15.650;2023-07-29T10:10:27;97689.56;;;31.02;32.92
59194;BME280;44967;48.598;15.650;2023-07-29T10:12:54;97680.25;;;30.97;34.20
59194;BME280;44967;48.598;15.650;2023-07-29T10:15:20;97670.16;;;31.12;33.81
59194;BME280;44967;48.598;15.650;2023-07-29T10:17:46;97669.75;;;31.29;33.71
59194;BME280;44967;48.598;15.650;2023-07-29T10:20:13;97663.38;;;30.78;34.49
59194;BME280;44967;48.598;15.650;2023-07-29T10:22:41;97663.97;;;29.62;36.46
59194;BME280;44967;48.598;15.650;2023-07-29T10:25:08;97655.16;;;28.90;37.30
59194;BME280;44967;48.598;15.650;2023-07-29T10:27:56;97662.09;;;28.92;38.15
59194;BME280;44967;48.598;15.650;2023-07-29T10:30:24;97660.53;;;29.06;37.62
59194;BME280;44967;48.598;15.650;2023-07-29T10:32:51;97654.22;;;29.06;37.65
59194;BME280;44967;48.598;15.650;2023-07-29T10:35:17;97662.53;;;28.65;38.56
59194;BME280;44967;48.598;15.650;2023-07-29T10:37:44;97653.09;;;28.37;38.62
59194;BME280;44967;48.598;15.650;2023-07-29T10:40:12;97668.75;;;27.94;40.52
59194;BME280;44967;48.598;15.650;2023-07-29T10:42:38;97699.47;;;27.79;40.93
59194;BME280;44967;48.598;15.650;2023-07-29T10:45:20;97723.69;;;27.48;50.09
59194;BME280;44967;48.598;15.650;2023-07-29T10:47:47;97761.13;;;26.94;51.60
59194;BME280;44967;48.598;15.650;2023-07-29T10:50:20;97778.06;;;24.46;64.77
59194;BME280;44967;48.598;15.650;2023-07-29T10:52:52;97741.56;;;22.96;70.63
59194;BME280;44967;48.598;15.650;2023-07-29T10:55:35;97758.84;;;22.12;73.75
59194;BME280;44967;48.598;15.650;2023-07-29T10:58:06;97728.41;;;21.80;79.13
59194;BME280;44967;48.598;15.650;2023-07-29T11:00:32;97690.59;;;21.60;82.11
59194;BME280;44967;48.598;15.650;2023-07-29T11:03:00;97704.28;;;22.10;81.04
59194;BME280;44967;48.598;15.650;2023-07-29T11:05:45;97703.88;;;22.35;80.93
59194;BME280;44967;48.598;15.650;2023-07-29T11:08:17;97699.16;;;22.28;80.12
59194;BME280;44967;48.598;15.650;2023-07-29T11:10:44;97714.88;;;22.32;82.44
59194;BME280;44967;48.598;15.650;2023-07-29T11:13:10;97719.75;;;22.18;82.86
59194;BME280;44967;48.598;15.650;2023-07-29T11:15:38;97684.28;;;22.03;84.30
59194;BME280;44967;48.598;15.650;2023-07-29T11:18:05;97681.88;;;22.09;80.50
59194;BME280;44967;48.598;15.650;2023-07-29T11:20:33;97681.47;;;22.35;81.68
59194;BME280;44967;48.598;15.650;2023-07-29T11:23:03;97679.53;;;22.46;81.14
59194;BME280;44967;48.598;15.650;2023-07-29T11:25:30;97674.03;;;22.58;81.13
59194;BME280;44967;48.598;15.650;2023-07-29T11:27:57;97670.63;;;22.86;82.39
59194;BME280;44967;48.598;15.650;2023-07-29T11:30:25;97669.84;;;23.33;81.14
59194;BME280;44967;48.598;15.650;2023-07-29T11:32:55;97664.44;;;23.91;81.23
59194;BME280;44967;48.598;15.650;2023-07-29T11:35:21;97659.22;;;23.80;76.21
59194;BME280;44967;48.598;15.650;2023-07-29T11:37:49;97656.75;;;23.86;78.85
59194;BME280;44967;48.598;15.650;2023-07-29T11:40:17;97667.56;;;23.86;79.35
59194;BME280;44967;48.598;15.650;2023-07-29T11:42:44;97673.28;;;23.74;80.97
59194;BME280;44967;48.598;15.650;2023-07-29T11:45:11;97702.69;;;23.58;80.83
59194;BME280;44967;48.598;15.650;2023-07-29T11:47:36;97712.13;;;23.33;82.08
59194;BME280;44967;48.598;15.650;2023-07-29T11:50:07;97709.50;;;22.93;81.79
59194;BME280;44967;48.598;15.650;2023-07-29T11:52:37;97713.91;;;22.94;81.49
59194;BME280;44967;48.598;15.650;2023-07-29T11:55:04;97716.31;;;22.97;79.87
59194;BME280;44967;48.598;15.650;2023-07-29T11:57:30;97713.78;;;23.05;73.82
59194;BME280;44967;48.598;15.650;2023-07-29T11:59:57;97706.47;;;23.36;67.57
59194;BME280;44967;48.598;15.650;2023-07-29T12:02:23;97696.84;;;23.53;69.39
59194;BME280;44967;48.598;15.650;2023-07-29T12:04:50;97699.81;;;23.30;69.04
59194;BME280;44967;48.598;15.650;2023-07-29T12:07:17;97688.88;;;23.41;70.15
59194;BME280;44967;48.598;15.650;2023-07-29T12:09:44;97692.00;;;23.37;71.12
59194;BME280;44967;48.598;15.650;2023-07-29T12:12:12;97692.88;;;23.57;75.93
59194;BME280;44967;48.598;15.650;2023-07-29T12:14:37;97696.56;;;23.65;76.98
59194;BME280;44967;48.598;15.650;2023-07-29T12:17:05;97691.72;;;23.88;72.85
59194;BME280;44967;48.598;15.650;2023-07-29T12:19:35;97687.13;;;24.27;71.00
59194;BME280;44967;48.598;15.650;2023-07-29T12:22:02;97684.16;;;24.20;67.81
59194;BME280;44967;48.598;15.650;2023-07-29T12:24:31;97681.75;;;24.17;67.05
59194;BME280;44967;48.598;15.650;2023-07-29T12:26:58;97689.41;;;24.22;69.24
59194;BME280;44967;48.598;15.650;2023-07-29T12:29:24;97691.66;;;24.26;67.66
59194;BME280;44967;48.598;15.650;2023-07-29T12:32:00;97685.44;;;24.63;69.77
59194;BME280;44967;48.598;15.650;2023-07-29T12:34:27;97687.03;;;24.83;68.87
59194;BME280;44967;48.598;15.650;2023-07-29T12:36:54;97681.41;;;24.76;67.12
59194;BME280;44967;48.598;15.650;2023-07-29T12:39:23;97673.25;;;24.86;67.23
59194;BME280;44967;48.598;15.650;2023-07-29T12:41:51;97678.41;;;24.70;69.90
59194;BME280;44967;48.598;15.650;2023-07-29T12:44:17;97683.69;;;24.71;68.34
59194;BME280;44967;48.598;15.650;2023-07-29T12:46:43;97677.75;;;24.58;69.16
59194;BME280;44967;48.598;15.650;2023-07-29T12:49:09;97681.53;;;24.75;66.26
59194;BME280;44967;48.598;15.650;2023-07-29T12:51:35;97677.75;;;24.95;67.49
59194;BME280;44967;48.598;15.650;2023-07-29T12:54:03;97677.13;;;25.01;66.15
59194;BME280;44967;48.598;15.650;2023-07-29T12:56:30;97677.69;;;25.05;64.90